Flight Track Log - Related Links

Times and Time Zones

All times are in EDT time to prevent confusion due to time zone crossing. See the N400PU flight status page for this flight to view local times or setup timezone preferences in your user account.

Time Position Orientation Groundspeed Altitude Reporting Facility
EDT Latitude Longitude Course Direction KTS MPH feet Rate Location/Type
Mon 18:51:02 39.4669 -87.3944 17° North 234 269 5,000  Level Chicago Center
Mon 18:52:10 39.5303 -87.3614 22° Northeast 245 282 5,000  Level Indianapolis Center
Mon 18:53:13 39.6008 -87.3292 19° North 230 265 5,000  Level Indianapolis Center
Mon 18:54:00 39.7735 -87.1819 17° North  Level FlightAware Approximate
Mon 18:54:15 39.6633 -87.2981 21° North 236 272 5,000  Level Indianapolis Center
Mon 18:55:00 39.8381 -87.1573 17° North  Level Estimated
Mon 18:55:17 39.7239 -87.2689 20° North 234 269 5,000  Level Indianapolis Center
Mon 18:56:00 39.9024 -87.1319 17° North  Level FlightAware Approximate
Mon 18:56:19 39.7817 -87.2414 20° North 225 259 5,000  Level Indianapolis Center
Mon 18:57:21 39.8397 -87.2139 20° North 223 257 5,000  Level Indianapolis Center
Mon 18:58:23 39.8986 -87.1883 18° North 222 255 5,000  Level Indianapolis Center
Mon 18:59:25 39.9583 -87.1672 15° North 222 255 5,000  Level Indianapolis Center
Mon 19:00:27 40.0278 -87.1292 23° Northeast 224 258 5,000  Level Indianapolis Center
Mon 19:01:29 40.0864 -87.1022 19° North 224 258 5,000 -52 Level Indianapolis Center
Mon 19:02:23 40.1336 -87.0792 20° North 225 259 4,900 -353 Descending Chicago Center
Mon 19:02:54 40.1628 -87.0339 50° Northeast 245 282 4,500 -484 Descending Chicago Center
Mon 19:03:25 40.1728 -87.0097 62° Northeast 242 278 4,400 -492 Descending Chicago Center
Mon 19:03:55 40.1928 -86.9597 62° Northeast 238 274 4,000 -677 Descending Chicago Center
Mon 19:04:27 40.2108 -86.9217 58° Northeast 238 274 3,700 -689 Descending Chicago Center
Mon 19:04:56 40.2250 -86.8856 63° Northeast 228 262 3,300 -677 Descending Chicago Center
Mon 19:05:29 40.2419 -86.8481 59° Northeast 234 269 3,000 -300 Descending Chicago Center
Mon 19:05:56 40.2547 -86.8139 64° Northeast 229 264 3,000  Level Chicago Center
Mon 19:06:30 40.2728 -86.7761 58° Northeast 231 266 3,000 -98 Level Chicago Center
Mon 19:06:57 40.2847 -86.7422 65° Northeast 217 250 2,900  Descending Chicago Center
Mon 19:07:32 40.3011 -86.7081 58° Northeast 224 258 3,000 -300 Climbing Chicago Center
Mon 19:07:57 40.3239 -86.6931 27° Northeast 222 255 2,600 -387 Descending Chicago Center
Mon 19:08:34 40.3586 -86.6928 360° North 227 261 2,600  Level Chicago Center
Mon 19:08:58 40.3839 -86.7078 336° Northwest 209 241 2,600  Level Chicago Center
Mon 19:09:36 40.3914 -86.7331 291° West 203 234 2,600  Level Chicago Center
Mon 19:09:59 40.3922 -86.7683 272° West 162 186 2,600 -97 Level Chicago Center
Mon 19:10:38 40.3983 -86.8050 282° West 177 204 2,500 -400 Descending Chicago Center
Mon 19:10:59 40.4006 -86.8261 278° West 161 185 2,200 -97 Descending Chicago Center
Mon 19:11:40 40.4083 -86.8611 286° West 174 200 2,400 -885 Climbing Chicago Center
Mon 19:12:00 40.4044 -86.8839 257° West 155 178 1,300 -3,300 Descending Chicago Center

Login

Don't have an account? Register now (free) for customized features, flight alerts, and more!